sensor_id;sensor_type;location;lat;lon;timestamp;pressure;altitude;pressure_sealevel;temperature;humidity
26697;BME280;14312;52.614;13.496;2023-04-01T00:01:03;99029.06;;;13.17;68.81
26697;BME280;14312;52.614;13.496;2023-04-01T00:03:49;99022.41;;;13.15;68.66
26697;BME280;14312;52.614;13.496;2023-04-01T00:06:35;99030.44;;;13.15;68.74
26697;BME280;14312;52.614;13.496;2023-04-01T00:09:21;99028.88;;;13.14;68.71
26697;BME280;14312;52.614;13.496;2023-04-01T00:12:07;99033.69;;;13.12;68.77
26697;BME280;14312;52.614;13.496;2023-04-01T00:14:53;99036.09;;;13.13;68.91
26697;BME280;14312;52.614;13.496;2023-04-01T00:17:39;99034.50;;;13.12;68.91
26697;BME280;14312;52.614;13.496;2023-04-01T00:20:25;99036.38;;;13.12;68.96
26697;BME280;14312;52.614;13.496;2023-04-01T00:23:11;99025.66;;;13.12;68.98
26697;BME280;14312;52.614;13.496;2023-04-01T00:26:00;99028.88;;;13.14;69.08
26697;BME280;14312;52.614;13.496;2023-04-01T00:28:46;99031.00;;;13.12;69.04
26697;BME280;14312;52.614;13.496;2023-04-01T00:31:32;99024.88;;;13.11;69.28
26697;BME280;14312;52.614;13.496;2023-04-01T00:34:18;99032.63;;;13.13;69.16
26697;BME280;14312;52.614;13.496;2023-04-01T00:37:07;99023.53;;;13.14;69.27
26697;BME280;14312;52.614;13.496;2023-04-01T00:39:54;99028.88;;;13.14;69.33
26697;BME280;14312;52.614;13.496;2023-04-01T00:42:40;99024.00;;;13.16;69.29
26697;BME280;14312;52.614;13.496;2023-04-01T00:45:38;99023.72;;;13.17;69.80
26697;BME280;14312;52.614;13.496;2023-04-01T00:48:28;99033.03;;;13.20;69.49
26697;BME280;14312;52.614;13.496;2023-04-01T00:51:27;99021.25;;;13.21;69.94
26697;BME280;14312;52.614;13.496;2023-04-01T00:54:16;99031.97;;;13.21;69.37
26697;BME280;14312;52.614;13.496;2023-04-01T00:57:10;99029.47;;;13.24;69.52
26697;BME280;14312;52.614;13.496;2023-04-01T00:59:58;99027.28;;;13.26;69.16
26697;BME280;14312;52.614;13.496;2023-04-01T01:02:45;99029.97;;;13.26;69.16
26697;BME280;14312;52.614;13.496;2023-04-01T01:27:08;99029.69;;;13.28;69.47
26697;BME280;14312;52.614;13.496;2023-04-01T01:30:16;99029.69;;;13.28;69.60
26697;BME280;14312;52.614;13.496;2023-04-01T01:33:22;99039.59;;;13.27;69.29
26697;BME280;14312;52.614;13.496;2023-04-01T01:36:13;99044.13;;;13.27;69.29
26697;BME280;14312;52.614;13.496;2023-04-01T01:39:03;99044.13;;;13.27;69.13
26697;BME280;14312;52.614;13.496;2023-04-01T01:41:50;99043.63;;;13.25;69.09
26697;BME280;14312;52.614;13.496;2023-04-01T01:44:38;99040.97;;;13.25;69.10
26697;BME280;14312;52.614;13.496;2023-04-01T01:47:25;99041.53;;;13.22;69.08
26697;BME280;14312;52.614;13.496;2023-04-01T01:50:13;99036.97;;;13.22;69.15
26697;BME280;14312;52.614;13.496;2023-04-01T01:53:05;99040.78;;;13.21;69.44
26697;BME280;14312;52.614;13.496;2023-04-01T01:55:52;99036.50;;;13.20;69.25
26697;BME280;14312;52.614;13.496;2023-04-01T01:58:47;99045.31;;;13.21;69.54
26697;BME280;14312;52.614;13.496;2023-04-01T02:01:39;99042.16;;;13.19;69.30
26697;BME280;14312;52.614;13.496;2023-04-01T02:04:27;99047.50;;;13.19;69.15
26697;BME280;14312;52.614;13.496;2023-04-01T02:07:21;99048.88;;;13.16;69.56
26697;BME280;14312;52.614;13.496;2023-04-01T02:10:09;99046.47;;;13.15;69.17
26697;BME280;14312;52.614;13.496;2023-04-01T02:12:58;99048.06;;;13.16;69.40
26697;BME280;14312;52.614;13.496;2023-04-01T02:15:47;99051.84;;;13.15;69.12
26697;BME280;14312;52.614;13.496;2023-04-01T02:18:38;99050.28;;;13.14;69.30
26697;BME280;14312;52.614;13.496;2023-04-01T02:21:26;99047.06;;;13.12;69.41
26697;BME280;14312;52.614;13.496;2023-04-01T02:24:14;99050.81;;;13.11;69.25
26697;BME280;14312;52.614;13.496;2023-04-01T02:27:01;99054.59;;;13.10;69.43
26697;BME280;14312;52.614;13.496;2023-04-01T02:29:47;99051.41;;;13.08;69.14
26697;BME280;14312;52.614;13.496;2023-04-01T02:32:35;99059.94;;;13.10;69.52
26697;BME280;14312;52.614;13.496;2023-04-01T02:35:24;99058.34;;;13.09;69.48
26697;BME280;14312;52.614;13.496;2023-04-01T02:38:11;99057.53;;;13.08;69.36
26697;BME280;14312;52.614;13.496;2023-04-01T02:40:59;99058.34;;;13.09;69.37
26697;BME280;14312;52.614;13.496;2023-04-01T02:43:46;99069.03;;;13.09;69.46
26697;BME280;14312;52.614;13.496;2023-04-01T02:46:32;99065.88;;;13.07;69.44
26697;BME280;14312;52.614;13.496;2023-04-01T02:49:18;99063.69;;;13.09;69.55
26697;BME280;14312;52.614;13.496;2023-04-01T02:52:04;99069.81;;;13.09;69.69
26697;BME280;14312;52.614;13.496;2023-04-01T02:54:50;99072.22;;;13.11;69.60
26697;BME280;14312;52.614;13.496;2023-04-01T02:57:36;99071.13;;;13.12;70.00
26697;BME280;14312;52.614;13.496;2023-04-01T03:00:22;99070.06;;;13.13;69.70
26697;BME280;14312;52.614;13.496;2023-04-01T03:03:09;99072.47;;;13.14;69.85
26697;BME280;14312;52.614;13.496;2023-04-01T03:05:55;99074.81;;;13.16;69.75
26697;BME280;14312;52.614;13.496;2023-04-01T03:08:41;99078.00;;;13.18;69.88
26697;BME280;14312;52.614;13.496;2023-04-01T03:11:27;99081.19;;;13.20;69.81
26697;BME280;14312;52.614;13.496;2023-04-01T03:14:13;99080.56;;;13.23;69.88
26697;BME280;14312;52.614;13.496;2023-04-01T03:16:59;99075.22;;;13.23;69.78
26697;BME280;14312;52.614;13.496;2023-04-01T03:19:46;99078.41;;;13.25;69.83
26697;BME280;14312;52.614;13.496;2023-04-01T03:22:32;99076.25;;;13.27;69.61
26697;BME280;14312;52.614;13.496;2023-04-01T03:25:18;99075.16;;;13.28;69.70
26697;BME280;14312;52.614;13.496;2023-04-01T03:28:04;99082.38;;;13.27;69.53
26697;BME280;14312;52.614;13.496;2023-04-01T03:30:50;99080.78;;;13.26;69.55
26697;BME280;14312;52.614;13.496;2023-04-01T03:33:36;99084.25;;;13.27;69.46
26697;BME280;14312;52.614;13.496;2023-04-01T03:36:22;99082.69;;;13.26;69.35
26697;BME280;14312;52.614;13.496;2023-04-01T03:39:08;99084.56;;;13.25;69.56
26697;BME280;14312;52.614;13.496;2023-04-01T03:41:54;99089.91;;;13.25;69.75
26697;BME280;14312;52.614;13.496;2023-04-01T03:44:40;99095.53;;;13.24;69.54
26697;BME280;14312;52.614;13.496;2023-04-01T03:47:26;99091.28;;;13.23;69.49
26697;BME280;14312;52.614;13.496;2023-04-01T03:50:12;99096.63;;;13.23;69.49
26697;BME280;14312;52.614;13.496;2023-04-01T03:52:58;99098.03;;;13.20;69.56
26697;BME280;14312;52.614;13.496;2023-04-01T03:55:44;99102.06;;;13.18;69.61
26697;BME280;14312;52.614;13.496;2023-04-01T03:58:30;99106.34;;;13.19;69.80
26697;BME280;14312;52.614;13.496;2023-04-01T04:01:19;99105.53;;;13.18;69.71
26697;BME280;14312;52.614;13.496;2023-04-01T04:04:06;99107.72;;;13.16;69.53
26697;BME280;14312;52.614;13.496;2023-04-01T04:06:52;99113.84;;;13.17;69.80
26697;BME280;14312;52.614;13.496;2023-04-01T04:09:38;99118.41;;;13.16;69.70
26697;BME280;14312;52.614;13.496;2023-04-01T04:12:24;99112.25;;;13.16;69.84
26697;BME280;14312;52.614;13.496;2023-04-01T04:15:11;99110.38;;;13.16;69.83
26697;BME280;14312;52.614;13.496;2023-04-01T04:17:57;99124.56;;;13.17;69.96
26697;BME280;14312;52.614;13.496;2023-04-01T04:20:44;99115.44;;;13.18;70.11
26697;BME280;14312;52.614;13.496;2023-04-01T04:23:33;99123.19;;;13.19;69.96
26697;BME280;14312;52.614;13.496;2023-04-01T04:26:19;99120.81;;;13.18;69.98
26697;BME280;14312;52.614;13.496;2023-04-01T04:29:05;99122.09;;;13.20;69.90
26697;BME280;14312;52.614;13.496;2023-04-01T04:31:51;99121.03;;;13.21;70.08
26697;BME280;14312;52.614;13.496;2023-04-01T04:34:37;99130.59;;;13.22;70.08
26697;BME280;14312;52.614;13.496;2023-04-01T04:37:23;99132.47;;;13.22;69.94
26697;BME280;14312;52.614;13.496;2023-04-01T04:40:11;99139.44;;;13.23;69.66
26697;BME280;14312;52.614;13.496;2023-04-01T04:42:57;99135.66;;;13.24;70.06
26697;BME280;14312;52.614;13.496;2023-04-01T04:45:43;99137.25;;;13.25;70.06
26697;BME280;14312;52.614;13.496;2023-04-01T04:48:29;99137.25;;;13.25;70.01
26697;BME280;14312;52.614;13.496;2023-04-01T04:51:17;99145.78;;;13.27;70.10
26697;BME280;14312;52.614;13.496;2023-04-01T04:54:04;99140.44;;;13.27;69.92
26697;BME280;14312;52.614;13.496;2023-04-01T04:56:53;99145.78;;;13.27;70.18
26697;BME280;14312;52.614;13.496;2023-04-01T04:59:39;99139.34;;;13.28;70.15
26697;BME280;14312;52.614;13.496;2023-04-01T05:02:25;99147.38;;;13.28;70.11
26697;BME280;14312;52.614;13.496;2023-04-01T05:05:11;99143.59;;;13.29;70.38
26697;BME280;14312;52.614;13.496;2023-04-01T05:07:57;99152.13;;;13.31;70.18
26697;BME280;14312;52.614;13.496;2023-04-01T05:10:44;99144.63;;;13.33;70.42
26697;BME280;14312;52.614;13.496;2023-04-01T05:13:30;99153.16;;;13.35;70.26
26697;BME280;14312;52.614;13.496;2023-04-01T05:16:18;99150.94;;;13.37;70.52
26697;BME280;14312;52.614;13.496;2023-04-01T05:19:04;99154.63;;;13.41;70.32
26697;BME280;14312;52.614;13.496;2023-04-01T05:21:50;99153.56;;;13.42;70.44
26697;BME280;14312;52.614;13.496;2023-04-01T05:24:36;99159.91;;;13.46;70.25
26697;BME280;14312;52.614;13.496;2023-04-01T05:27:22;99160.69;;;13.47;70.10
26697;BME280;14312;52.614;13.496;2023-04-01T05:30:09;99163.38;;;13.47;70.25
26697;BME280;14312;52.614;13.496;2023-04-01T05:32:55;99163.56;;;13.50;70.20
26697;BME280;14312;52.614;13.496;2023-04-01T05:35:41;99165.16;;;13.51;70.14
26697;BME280;14312;52.614;13.496;2023-04-01T05:38:27;99166.75;;;13.52;70.22
26697;BME280;14312;52.614;13.496;2023-04-01T05:41:14;99172.59;;;13.54;70.25
26697;BME280;14312;52.614;13.496;2023-04-01T05:44:00;99163.47;;;13.55;70.12
26697;BME280;14312;52.614;13.496;2023-04-01T05:46:46;99172.00;;;13.57;70.20
26697;BME280;14312;52.614;13.496;2023-04-01T05:49:33;99170.91;;;13.58;70.32
26697;BME280;14312;52.614;13.496;2023-04-01T05:52:19;99168.22;;;13.58;70.28
26697;BME280;14312;52.614;13.496;2023-04-01T05:55:05;99175.97;;;13.60;70.28
26697;BME280;14312;52.614;13.496;2023-04-01T05:57:51;99174.59;;;13.62;70.06
26697;BME280;14312;52.614;13.496;2023-04-01T06:00:37;99177.28;;;13.62;70.34
26697;BME280;14312;52.614;13.496;2023-04-01T06:03:23;99183.09;;;13.64;70.42
26697;BME280;14312;52.614;13.496;2023-04-01T06:06:13;99180.94;;;13.66;70.55
26697;BME280;14312;52.614;13.496;2023-04-01T06:09:10;99188.97;;;13.66;70.54
26697;BME280;14312;52.614;13.496;2023-04-01T06:15:06;99195.63;;;13.69;70.61
26697;BME280;14312;52.614;13.496;2023-04-01T06:21:22;99196.13;;;13.71;70.52
26697;BME280;14312;52.614;13.496;2023-04-01T06:36:51;99221.22;;;13.75;70.17
26697;BME280;14312;52.614;13.496;2023-04-01T06:42:47;99221.41;;;13.79;70.54
26697;BME280;14312;52.614;13.496;2023-04-01T06:46:03;99220.31;;;13.80;70.63
26697;BME280;14312;52.614;13.496;2023-04-01T06:49:12;99226.16;;;13.82;70.75
26697;BME280;14312;52.614;13.496;2023-04-01T06:52:10;99235.19;;;13.86;70.40
26697;BME280;14312;52.614;13.496;2023-04-01T06:58:20;99234.59;;;13.89;70.41
26697;BME280;14312;52.614;13.496;2023-04-01T07:01:09;99235.13;;;13.91;70.00
26697;BME280;14312;52.614;13.496;2023-04-01T07:04:20;99232.91;;;13.93;70.38
26697;BME280;14312;52.614;13.496;2023-04-01T07:07:17;99231.34;;;13.92;70.13
26697;BME280;14312;52.614;13.496;2023-04-01T07:10:32;99242.25;;;13.95;70.54
26697;BME280;14312;52.614;13.496;2023-04-01T07:13:32;99236.09;;;13.95;70.28
26697;BME280;14312;52.614;13.496;2023-04-01T07:16:25;99241.47;;;13.95;69.79
26697;BME280;14312;52.614;13.496;2023-04-01T07:19:22;99240.47;;;13.91;69.65
26697;BME280;14312;52.614;13.496;2023-04-01T07:25:34;99249.75;;;13.80;68.98
26697;BME280;14312;52.614;13.496;2023-04-01T07:28:22;99258.47;;;13.71;68.68
26697;BME280;14312;52.614;13.496;2023-04-01T07:31:25;99260.25;;;13.62;68.93
26697;BME280;14312;52.614;13.496;2023-04-01T07:34:25;99258.81;;;13.51;68.75
26697;BME280;14312;52.614;13.496;2023-04-01T07:37:31;99262.16;;;13.43;69.17
26697;BME280;14312;52.614;13.496;2023-04-01T07:43:43;99272.00;;;13.29;69.52
26697;BME280;14312;52.614;13.496;2023-04-01T07:47:10;99284.38;;;13.25;69.91
26697;BME280;14312;52.614;13.496;2023-04-01T07:50:14;99283.88;;;13.23;69.75
26697;BME280;14312;52.614;13.496;2023-04-01T07:55:57;99290.38;;;13.17;69.21
26697;BME280;14312;52.614;13.496;2023-04-01T08:02:20;99292.59;;;13.10;69.52
26697;BME280;14312;52.614;13.496;2023-04-01T08:05:13;99293.69;;;13.09;69.54
26697;BME280;14312;52.614;13.496;2023-04-01T08:08:19;99297.94;;;13.10;69.79
26697;BME280;14312;52.614;13.496;2023-04-01T08:11:38;99297.75;;;13.06;69.76
26697;BME280;14312;52.614;13.496;2023-04-01T08:14:52;99307.66;;;13.06;70.08
26697;BME280;14312;52.614;13.496;2023-04-01T08:20:39;99311.41;;;13.05;70.05
26697;BME280;14312;52.614;13.496;2023-04-01T08:23:31;99316.16;;;13.08;69.87
26697;BME280;14312;52.614;13.496;2023-04-01T08:26:28;99312.72;;;13.07;69.75
26697;BME280;14312;52.614;13.496;2023-04-01T08:30:02;99315.66;;;13.06;69.67
26697;BME280;14312;52.614;13.496;2023-04-01T08:32:55;99319.19;;;13.01;69.59
26697;BME280;14312;52.614;13.496;2023-04-01T08:36:08;99326.94;;;13.03;69.99
26697;BME280;14312;52.614;13.496;2023-04-01T08:39:07;99330.41;;;13.03;70.23
26697;BME280;14312;52.614;13.496;2023-04-01T09:00:55;99342.53;;;13.19;69.89
26697;BME280;14312;52.614;13.496;2023-04-01T09:03:58;99346.47;;;13.22;70.00
26697;BME280;14312;52.614;13.496;2023-04-01T09:07:00;99345.91;;;13.25;69.89
26697;BME280;14312;52.614;13.496;2023-04-01T09:28:35;99363.63;;;13.21;69.52
26697;BME280;14312;52.614;13.496;2023-04-01T09:38:39;99374.91;;;13.18;69.32
26697;BME280;14312;52.614;13.496;2023-04-01T09:41:32;99372.22;;;13.18;69.09
26697;BME280;14312;52.614;13.496;2023-04-01T09:44:28;99381.31;;;13.17;68.96
26697;BME280;14312;52.614;13.496;2023-04-01T09:47:34;99388.84;;;13.15;69.17
26697;BME280;14312;52.614;13.496;2023-04-01T09:50:33;99395.81;;;13.11;68.97
26697;BME280;14312;52.614;13.496;2023-04-01T10:02:58;99407.84;;;12.89;68.05
26697;BME280;14312;52.614;13.496;2023-04-01T10:29:34;99428.81;;;12.25;69.25
26697;BME280;14312;52.614;13.496;2023-04-01T10:32:27;99432.53;;;12.24;69.61
26697;BME280;14312;52.614;13.496;2023-04-01T10:39:00;99434.72;;;12.22;69.39
26697;BME280;14312;52.614;13.496;2023-04-01T10:51:25;99437.69;;;12.15;69.42
26697;BME280;14312;52.614;13.496;2023-04-01T10:54:28;99450.81;;;12.11;69.44
26697;BME280;14312;52.614;13.496;2023-04-01T11:07:05;99453.47;;;12.11;69.66
26697;BME280;14312;52.614;13.496;2023-04-01T11:13:34;99459.09;;;12.10;69.85
26697;BME280;14312;52.614;13.496;2023-04-01T11:16:49;99458.03;;;12.11;69.84
26697;BME280;14312;52.614;13.496;2023-04-01T11:33:04;99471.16;;;12.07;69.59
26697;BME280;14312;52.614;13.496;2023-04-01T11:45:42;99496.78;;;12.03;69.58
26697;BME280;14312;52.614;13.496;2023-04-01T11:48:37;99497.88;;;12.02;69.70
26697;BME280;14312;52.614;13.496;2023-04-01T11:54:49;99500.53;;;12.07;70.01
26697;BME280;14312;52.614;13.496;2023-04-01T11:58:02;99501.28;;;12.08;69.89
26697;BME280;14312;52.614;13.496;2023-04-01T12:14:00;99527.22;;;12.07;69.03
26697;BME280;14312;52.614;13.496;2023-04-01T12:20:17;99525.41;;;11.98;69.11
26697;BME280;14312;52.614;13.496;2023-04-01T12:48:32;99558.34;;;11.68;69.54
26697;BME280;14312;52.614;13.496;2023-04-01T13:01:15;99575.97;;;11.59;69.12
26697;BME280;14312;52.614;13.496;2023-04-01T13:07:23;99586.94;;;11.52;69.12
26697;BME280;14312;52.614;13.496;2023-04-01T13:10:42;99586.94;;;11.52;69.33
26697;BME280;14312;52.614;13.496;2023-04-01T13:13:48;99589.91;;;11.51;69.71
26697;BME280;14312;52.614;13.496;2023-04-01T13:19:39;99590.44;;;11.48;69.10
26697;BME280;14312;52.614;13.496;2023-04-01T13:22:49;99602.97;;;11.47;69.26
26697;BME280;14312;52.614;13.496;2023-04-01T13:28:34;99612.88;;;11.42;69.26
26697;BME280;14312;52.614;13.496;2023-04-01T13:49:57;99641.13;;;11.48;69.80
26697;BME280;14312;52.614;13.496;2023-04-01T14:02:28;99651.25;;;11.46;69.33
26697;BME280;14312;52.614;13.496;2023-04-01T14:05:12;99650.75;;;11.44;68.98
26697;BME280;14312;52.614;13.496;2023-04-01T14:08:36;99653.94;;;11.41;68.69
26697;BME280;14312;52.614;13.496;2023-04-01T14:11:39;99664.09;;;11.33;68.89
26697;BME280;14312;52.614;13.496;2023-04-01T14:14:40;99659.03;;;11.27;68.66
26697;BME280;14312;52.614;13.496;2023-04-01T14:23:42;99671.03;;;11.14;68.83
26697;BME280;14312;52.614;13.496;2023-04-01T14:33:20;99688.09;;;11.08;69.25
26697;BME280;14312;52.614;13.496;2023-04-01T14:43:14;99693.44;;;11.08;69.45
26697;BME280;14312;52.614;13.496;2023-04-01T14:49:36;99702.50;;;11.07;69.11
26697;BME280;14312;52.614;13.496;2023-04-01T14:52:36;99713.69;;;11.04;68.92
26697;BME280;14312;52.614;13.496;2023-04-01T14:58:50;99721.94;;;10.97;68.89
26697;BME280;14312;52.614;13.496;2023-04-01T15:01:50;99728.06;;;10.93;69.08
26697;BME280;14312;52.614;13.496;2023-04-01T15:04:46;99733.91;;;10.90;69.13
26697;BME280;14312;52.614;13.496;2023-04-01T15:08:00;99728.03;;;10.88;69.12
26697;BME280;14312;52.614;13.496;2023-04-01T15:17:27;99752.56;;;10.85;69.77
26697;BME280;14312;52.614;13.496;2023-04-01T15:26:42;99746.19;;;10.91;69.28
26697;BME280;14312;52.614;13.496;2023-04-01T15:29:44;99752.31;;;10.91;69.05
26697;BME280;14312;52.614;13.496;2023-04-01T15:32:53;99762.97;;;10.91;69.10
26697;BME280;14312;52.614;13.496;2023-04-01T15:38:42;99761.13;;;10.87;68.93
26697;BME280;14312;52.614;13.496;2023-04-01T16:06:21;99806.84;;;10.58;68.93
26697;BME280;14312;52.614;13.496;2023-04-01T16:09:22;99806.31;;;10.56;68.90
26697;BME280;14312;52.614;13.496;2023-04-01T16:12:19;99811.63;;;10.51;68.60
26697;BME280;14312;52.614;13.496;2023-04-01T16:28:22;99843.91;;;10.23;68.35
26697;BME280;14312;52.614;13.496;2023-04-01T16:34:34;99857.69;;;10.15;68.51
26697;BME280;14312;52.614;13.496;2023-04-01T16:37:29;99857.66;;;10.10;68.68
26697;BME280;14312;52.614;13.496;2023-04-01T16:49:37;99880.44;;;9.96;68.48
26697;BME280;14312;52.614;13.496;2023-04-01T16:55:20;99890.44;;;9.83;67.90
26697;BME280;14312;52.614;13.496;2023-04-01T16:58:08;99900.50;;;9.76;68.31
26697;BME280;14312;52.614;13.496;2023-04-01T17:01:02;99901.25;;;9.72;68.35
26697;BME280;14312;52.614;13.496;2023-04-01T17:03:53;99912.63;;;9.67;68.63
26697;BME280;14312;52.614;13.496;2023-04-01T17:16:14;99936.41;;;9.52;68.66
26697;BME280;14312;52.614;13.496;2023-04-01T17:19:19;99936.94;;;9.49;68.57
26697;BME280;14312;52.614;13.496;2023-04-01T17:25:31;99947.72;;;9.37;68.30
26697;BME280;14312;52.614;13.496;2023-04-01T17:31:21;99963.28;;;9.29;68.42
26697;BME280;14312;52.614;13.496;2023-04-01T17:43:39;99983.19;;;9.04;68.49
26697;BME280;14312;52.614;13.496;2023-04-01T17:49:37;99993.69;;;8.94;68.36
26697;BME280;14312;52.614;13.496;2023-04-01T17:53:00;99992.56;;;8.90;68.69
26697;BME280;14312;52.614;13.496;2023-04-01T17:59:11;100005.69;;;8.80;68.75
26697;BME280;14312;52.614;13.496;2023-04-01T18:24:31;100043.44;;;8.49;69.30
26697;BME280;14312;52.614;13.496;2023-04-01T18:27:24;100051.88;;;8.46;68.82
26697;BME280;14312;52.614;13.496;2023-04-01T18:30:31;100050.53;;;8.43;69.21
26697;BME280;14312;52.614;13.496;2023-04-01T18:33:23;100064.03;;;8.42;69.00
26697;BME280;14312;52.614;13.496;2023-04-01T18:39:38;100072.72;;;8.37;69.19
26697;BME280;14312;52.614;13.496;2023-04-01T18:46:03;100085.66;;;8.34;69.46
26697;BME280;14312;52.614;13.496;2023-04-01T18:49:13;100091.47;;;8.31;69.46
26697;BME280;14312;52.614;13.496;2023-04-01T18:57:49;100117.84;;;8.25;69.14
26697;BME280;14312;52.614;13.496;2023-04-01T19:00:42;100119.97;;;8.23;69.15
26697;BME280;14312;52.614;13.496;2023-04-01T19:03:57;100124.91;;;8.20;69.45
26697;BME280;14312;52.614;13.496;2023-04-01T19:06:53;100123.53;;;8.17;69.17
26697;BME280;14312;52.614;13.496;2023-04-01T19:09:47;100130.38;;;8.13;69.33
26697;BME280;14312;52.614;13.496;2023-04-01T19:13:30;100143.06;;;8.11;69.24
26697;BME280;14312;52.614;13.496;2023-04-01T19:31:24;100163.88;;;7.91;69.35
26697;BME280;14312;52.614;13.496;2023-04-01T19:34:25;100159.06;;;7.88;69.53
26697;BME280;14312;52.614;13.496;2023-04-01T19:43:44;100178.53;;;7.82;69.68
26697;BME280;14312;52.614;13.496;2023-04-01T19:46:44;100186.47;;;7.82;69.60
26697;BME280;14312;52.614;13.496;2023-04-01T19:52:31;100201.84;;;7.80;69.59
26697;BME280;14312;52.614;13.496;2023-04-01T19:55:48;100208.78;;;7.81;70.00
26697;BME280;14312;52.614;13.496;2023-04-01T19:58:58;100210.84;;;7.79;69.58
26697;BME280;14312;52.614;13.496;2023-04-01T20:01:57;100215.56;;;7.77;69.56
26697;BME280;14312;52.614;13.496;2023-04-01T20:04:50;100218.44;;;7.75;69.63
26697;BME280;14312;52.614;13.496;2023-04-01T20:07:47;100222.94;;;7.75;69.57
26697;BME280;14312;52.614;13.496;2023-04-01T20:10:49;100228.50;;;7.73;69.68
26697;BME280;14312;52.614;13.496;2023-04-01T20:19:44;100256.97;;;7.66;69.72
26697;BME280;14312;52.614;13.496;2023-04-01T20:31:25;100281.97;;;7.59;69.89
26697;BME280;14312;52.614;13.496;2023-04-01T20:34:32;100281.38;;;7.57;69.76
26697;BME280;14312;52.614;13.496;2023-04-01T20:37:48;100293.81;;;7.56;69.74
26697;BME280;14312;52.614;13.496;2023-04-01T20:47:15;100293.50;;;7.53;69.70
26697;BME280;14312;52.614;13.496;2023-04-01T20:59:30;100311.34;;;7.45;69.57
26697;BME280;14312;52.614;13.496;2023-04-01T21:02:42;100317.69;;;7.44;69.80
26697;BME280;14312;52.614;13.496;2023-04-01T21:05:42;100332.78;;;7.44;69.77
26697;BME280;14312;52.614;13.496;2023-04-01T21:14:45;100338.50;;;7.41;69.32
26697;BME280;14312;52.614;13.496;2023-04-01T21:17:46;100354.06;;;7.37;69.22
26697;BME280;14312;52.614;13.496;2023-04-01T21:50:53;100398.72;;;7.22;69.29
26697;BME280;14312;52.614;13.496;2023-04-01T21:53:52;100398.72;;;7.22;69.42
26697;BME280;14312;52.614;13.496;2023-04-01T22:00:28;100411.84;;;7.17;69.31
26697;BME280;14312;52.614;13.496;2023-04-01T22:09:03;100420.22;;;7.14;68.89
26697;BME280;14312;52.614;13.496;2023-04-01T22:14:45;100427.00;;;7.10;68.91
26697;BME280;14312;52.614;13.496;2023-04-01T22:18:45;100429.88;;;7.08;69.03
26697;BME280;14312;52.614;13.496;2023-04-01T22:21:22;100438.63;;;7.09;69.07
26697;BME280;14312;52.614;13.496;2023-04-01T22:24:17;100441.28;;;7.09;69.23
26697;BME280;14312;52.614;13.496;2023-04-01T22:27:31;100446.56;;;7.09;69.01
26697;BME280;14312;52.614;13.496;2023-04-01T22:30:24;100445.97;;;7.07;68.96
26697;BME280;14312;52.614;13.496;2023-04-01T22:33:37;100458.19;;;7.08;68.86
26697;BME280;14312;52.614;13.496;2023-04-01T22:36:33;100458.19;;;7.08;68.92
26697;BME280;14312;52.614;13.496;2023-04-01T22:42:44;100459.22;;;7.07;68.72
26697;BME280;14312;52.614;13.496;2023-04-01T22:45:44;100462.91;;;7.06;68.82
26697;BME280;14312;52.614;13.496;2023-04-01T22:48:42;100471.88;;;7.05;68.68
26697;BME280;14312;52.614;13.496;2023-04-01T22:51:41;100473.50;;;7.06;68.75
26697;BME280;14312;52.614;13.496;2023-04-01T22:54:58;100483.50;;;7.04;68.39
26697;BME280;14312;52.614;13.496;2023-04-01T22:57:57;100486.13;;;7.04;68.75
26697;BME280;14312;52.614;13.496;2023-04-01T23:00:49;100487.41;;;7.01;68.45
26697;BME280;14312;52.614;13.496;2023-04-01T23:03:46;100482.91;;;7.02;68.37
26697;BME280;14312;52.614;13.496;2023-04-01T23:06:38;100498.22;;;7.00;68.25
26697;BME280;14312;52.614;13.496;2023-04-01T23:09:31;100496.38;;;7.00;68.48
26697;BME280;14312;52.614;13.496;2023-04-01T23:12:19;100506.16;;;7.00;68.24
26697;BME280;14312;52.614;13.496;2023-04-01T23:15:12;100511.47;;;7.00;68.39
26697;BME280;14312;52.614;13.496;2023-04-01T23:18:09;100515.13;;;6.99;68.58
26697;BME280;14312;52.614;13.496;2023-04-01T23:21:20;100508.22;;;6.98;68.35
26697;BME280;14312;52.614;13.496;2023-04-01T23:24:32;100518.81;;;6.98;68.25
26697;BME280;14312;52.614;13.496;2023-04-01T23:27:28;100518.81;;;6.98;68.33
26697;BME280;14312;52.614;13.496;2023-04-01T23:33:30;100533.69;;;6.99;68.55
26697;BME280;14312;52.614;13.496;2023-04-01T23:36:16;100531.84;;;6.99;68.47
26697;BME280;14312;52.614;13.496;2023-04-01T23:39:05;100536.31;;;6.99;68.32
26697;BME280;14312;52.614;13.496;2023-04-01T23:45:16;100535.16;;;6.95;68.18
26697;BME280;14312;52.614;13.496;2023-04-01T23:48:05;100547.38;;;6.96;68.29
26697;BME280;14312;52.614;13.496;2023-04-01T23:50:51;100554.72;;;6.94;68.42
26697;BME280;14312;52.614;13.496;2023-04-01T23:53:43;100560.22;;;6.92;68.29
26697;BME280;14312;52.614;13.496;2023-04-01T23:56:43;100558.59;;;6.91;68.00
26697;BME280;14312;52.614;13.496;2023-04-01T23:59:35;100571.50;;;6.88;67.83
